This is the latest recevied weather packets stored in our database for station/object PY1LEO-13. If no packets are shown the sender has not sent any weather packets the latest 10 day(s).
| Time | Temp. | Humidity | Pressure | Rain* | Wind** | Luminosity | Snow |
|---|---|---|---|---|---|---|---|
| 1777471260 | 30.56° C | 59% | 1014.8 hPa | - | - | - | - |
| 1777470960 | 31.67° C | 58% | 1014.8 hPa | - | - | - | - |
| 1777470660 | 31.11° C | 59% | 1014.9 hPa | - | - | - | - |
| 1777470360 | 30.56° C | 61% | 1015 hPa | - | - | - | - |
| 1777470060 | 30.56° C | 61% | 1015.1 hPa | - | - | - | - |
| 1777469760 | 30.56° C | 61% | 1015.1 hPa | - | - | - | - |
| 1777469460 | 30.56° C | 62% | 1015.2 hPa | - | - | - | - |
| 1777469160 | 31.11° C | 60% | 1015.3 hPa | - | - | - | - |
| 1777468860 | 30.56° C | 62% | 1015.3 hPa | - | - | - | - |
| 1777468560 | 30° C | 63% | 1015.4 hPa | - | - | - | - |
| 1777468260 | 30° C | 64% | 1015.4 hPa | - | - | - | - |
| 1777467960 | 30.56° C | 63% | 1015.5 hPa | - | - | - | - |
| 1777467660 | 29.44° C | 64% | 1015.5 hPa | - | - | - | - |
| 1777467360 | 30° C | 64% | 1015.5 hPa | - | - | - | - |
| 1777467059 | 30° C | 65% | 1015.6 hPa | - | - | - | - |
| 1777466760 | 30° C | 65% | 1015.6 hPa | - | - | - | - |
| 1777466460 | 30° C | 65% | 1015.5 hPa | - | - | - | - |
| 1777466160 | 30° C | 64% | 1015.5 hPa | - | - | - | - |
| 1777465860 | 28.89° C | 67% | 1015.5 hPa | - | - | - | - |
| 1777465560 | 29.44° C | 66% | 1015.5 hPa | - | - | - | - |
| 1777465259 | 29.44° C | 67% | 1015.5 hPa | - | - | - | - |
| 1777464960 | 29.44° C | 67% | 1015.4 hPa | - | - | - | - |
| 1777464659 | 28.33° C | 68% | 1015.5 hPa | - | - | - | - |
| 1777464360 | 28.89° C | 67% | 1015.5 hPa | - | - | - | - |
| 1777464060 | 28.89° C | 67% | 1015.5 hPa | - | - | - | - |
* Rain since midnight (hover to see other rain measurements)
** Current wind speed in m/s (hover to see current wind gust speed)